createdAt,value
2023-05-19T00:08:20.027Z,100180.78
2023-05-19T00:18:21.450Z,100182.06
2023-05-19T00:28:22.935Z,100175.38
2023-05-19T00:38:24.741Z,100175.88
2023-05-19T00:48:26.249Z,100178.97
2023-05-19T00:58:30.074Z,100169.81
2023-05-19T01:08:36.136Z,100183.78
2023-05-19T01:18:56.143Z,100177.94
2023-05-19T01:29:07.535Z,100170.66
2023-05-19T01:39:08.996Z,100161.09
2023-05-19T01:49:10.423Z,100157.69
2023-05-19T01:59:40.246Z,100153.03
2023-05-19T02:10:23.814Z,100169.38
2023-05-19T02:20:25.228Z,100174.22
2023-05-19T02:30:26.813Z,100168.34
2023-05-19T02:40:28.256Z,100167.84
2023-05-19T02:50:29.852Z,100170.66
2023-05-19T03:00:31.675Z,100164.94
2023-05-19T03:10:33.447Z,100152.53
2023-05-19T03:20:35.209Z,100140.97
2023-05-19T03:30:37.273Z,100148.81
2023-05-19T03:40:38.930Z,100158.53
2023-05-19T03:50:40.532Z,100157.44
2023-05-19T04:00:42.431Z,100151.09
2023-05-19T04:10:43.988Z,100139.66
2023-05-19T04:20:45.592Z,100147.00
2023-05-19T04:30:50.671Z,100148.09
2023-05-19T04:41:02.152Z,100146.06
2023-05-19T04:51:05.022Z,100159.19
2023-05-19T05:01:06.622Z,100148.53
2023-05-19T05:11:08.296Z,100162.28
2023-05-19T05:21:10.195Z,100164.16
2023-05-19T05:31:11.768Z,100161.91
2023-05-19T05:41:13.349Z,100166.06
2023-05-19T05:51:14.947Z,100154.84
2023-05-19T06:01:17.619Z,100156.84
2023-05-19T06:11:19.912Z,100152.75
2023-05-19T06:21:21.740Z,100144.16
2023-05-19T06:31:23.245Z,100142.81
2023-05-19T06:41:24.855Z,100147.88
2023-05-19T06:51:26.368Z,100140.47
2023-05-19T07:01:28.440Z,100147.31
2023-05-19T07:11:29.886Z,100159.91
2023-05-19T07:21:31.397Z,100142.91
2023-05-19T07:31:32.953Z,100136.84
2023-05-19T07:41:36.463Z,100141.28
2023-05-19T07:51:38.150Z,100144.28
2023-05-19T08:01:39.560Z,100132.19
2023-05-19T08:11:41.032Z,100122.72
2023-05-19T08:21:42.484Z,100121.28
2023-05-19T08:31:44.109Z,100116.50
2023-05-19T08:41:45.838Z,100107.22
2023-05-19T08:52:09.630Z,100100.06
2023-05-19T09:02:11.450Z,100091.09
2023-05-19T09:12:13.183Z,100094.75
2023-05-19T09:22:19.275Z,100078.66
2023-05-19T09:32:27.456Z,100075.56
2023-05-19T09:42:30.076Z,100054.66
2023-05-19T09:52:31.543Z,100052.44
2023-05-19T10:02:33.158Z,100054.78
2023-05-19T10:12:34.778Z,100047.16
2023-05-19T10:22:36.982Z,100044.03
2023-05-19T10:32:39.284Z,100027.38
2023-05-19T10:42:44.698Z,100018.84
2023-05-19T10:52:49.000Z,100024.53
2023-05-19T11:02:55.994Z,100017.63
2023-05-19T11:12:58.291Z,100009.28
2023-05-19T11:23:09.291Z,100004.22
2023-05-19T11:33:10.923Z,99994.00
2023-05-19T11:43:12.556Z,99986.47
2023-05-19T11:53:14.035Z,99990.03
2023-05-19T12:03:17.510Z,99981.22
2023-05-19T12:13:19.268Z,99963.81
2023-05-19T12:23:20.847Z,99971.00
2023-05-19T12:33:22.851Z,99959.53
2023-05-19T12:43:24.389Z,99948.09
2023-05-19T12:53:26.358Z,99937.47
2023-05-19T13:03:27.943Z,99927.09
2023-05-19T13:13:29.465Z,99925.75
2023-05-19T13:23:30.891Z,99912.06
2023-05-19T13:33:32.370Z,99909.38
2023-05-19T13:43:33.825Z,99908.47
2023-05-19T13:53:35.394Z,99885.41
2023-05-19T14:03:37.129Z,99901.41
2023-05-19T14:13:42.563Z,99886.41
2023-05-19T14:23:44.885Z,99882.66
2023-05-19T14:33:46.540Z,99872.03
2023-05-19T14:43:48.887Z,99861.66
2023-05-19T14:53:50.682Z,99878.94
2023-05-19T15:03:52.428Z,99882.66
2023-05-19T15:13:54.081Z,99857.94
2023-05-19T15:23:55.603Z,99855.41
2023-05-19T15:33:57.128Z,99843.59
2023-05-19T15:44:02.421Z,99838.41
2023-05-19T15:54:03.846Z,99832.38
2023-05-19T16:04:05.380Z,99836.09
2023-05-19T16:14:06.986Z,99833.41
2023-05-19T16:24:08.434Z,99820.34
2023-05-19T16:34:09.994Z,99825.72
2023-05-19T16:44:14.198Z,99812.03
2023-05-19T16:54:15.788Z,99802.44
2023-05-19T17:04:17.226Z,99807.22
2023-05-19T17:14:18.707Z,99799.75
2023-05-19T17:24:20.254Z,99813.41
2023-05-19T17:34:21.864Z,99810.28
2023-05-19T17:44:23.317Z,99811.53
2023-05-19T17:54:26.083Z,99823.75
2023-05-19T18:04:27.730Z,99826.44
2023-05-19T18:14:29.315Z,99834.84
2023-05-19T18:24:30.773Z,99845.78
2023-05-19T18:34:32.353Z,99840.28
2023-05-19T18:44:33.849Z,99844.81
2023-05-19T18:54:35.394Z,99851.59
2023-05-19T19:04:36.912Z,99869.13
2023-05-19T19:14:38.929Z,99875.66
2023-05-19T19:24:42.914Z,99885.56
2023-05-19T19:34:44.400Z,99892.13
2023-05-19T19:44:45.929Z,99914.63
2023-05-19T19:54:48.032Z,99916.19
2023-05-19T20:04:49.476Z,99922.13
2023-05-19T20:14:53.467Z,99922.06
2023-05-19T20:24:54.898Z,99926.53
2023-05-19T20:34:56.496Z,99933.72
2023-05-19T20:44:58.077Z,99943.59
2023-05-19T20:54:59.531Z,99945.34
2023-05-19T21:05:01.093Z,99944.78
2023-05-19T21:15:03.518Z,99943.06
2023-05-19T21:25:05.329Z,99957.06
2023-05-19T21:35:07.177Z,99952.97
2023-05-19T21:45:09.193Z,99953.72
2023-05-19T21:55:10.664Z,99954.94
2023-05-19T22:05:12.304Z,99948.78
2023-05-19T22:15:14.359Z,99948.31
2023-05-19T22:25:16.048Z,99948.88
2023-05-19T22:35:17.772Z,99942.06
2023-05-19T22:45:19.251Z,99939.75
2023-05-19T22:55:21.047Z,99928.53
2023-05-19T23:05:22.480Z,99941.88
2023-05-19T23:15:24.040Z,99932.03
2023-05-19T23:25:25.478Z,99933.44
2023-05-19T23:35:26.958Z,99930.63
2023-05-19T23:45:28.387Z,99921.25
2023-05-19T23:55:29.951Z,99917.97
